createdAt,value
2022-11-16T00:13:08.576Z,37
2022-11-16T00:42:19.009Z,36
2022-11-16T01:11:28.922Z,41
2022-11-16T01:40:40.538Z,42
2022-11-16T02:09:48.553Z,31
2022-11-16T02:39:00.000Z,26
2022-11-16T03:08:09.562Z,24
2022-11-16T03:37:15.140Z,31
2022-11-16T04:06:21.499Z,31
2022-11-16T04:35:31.467Z,22
2022-11-16T05:04:37.514Z,13
2022-11-16T05:33:44.869Z,13
2022-11-16T06:02:54.379Z,13
2022-11-16T06:31:54.098Z,8
2022-11-16T07:00:47.482Z,13
2022-11-16T07:29:32.485Z,6
2022-11-16T07:58:43.613Z,7
2022-11-16T08:27:41.212Z,7
2022-11-16T08:56:52.104Z,6
2022-11-16T09:25:53.956Z,5
2022-11-16T09:55:04.108Z,4
2022-11-16T10:24:08.595Z,5
2022-11-16T10:53:12.558Z,4
2022-11-16T11:22:21.884Z,4
2022-11-16T11:51:26.492Z,4
2022-11-16T12:20:37.691Z,3
2022-11-16T12:49:38.146Z,4
2022-11-16T13:18:45.934Z,5
2022-11-16T13:47:46.377Z,5
2022-11-16T14:16:51.068Z,4
2022-11-16T14:45:54.102Z,4
2022-11-16T15:14:52.263Z,6
2022-11-16T15:44:12.079Z,8
2022-11-16T16:12:20.183Z,8
2022-11-16T16:41:21.243Z,8
2022-11-16T17:09:49.293Z,9
2022-11-16T17:38:47.446Z,8
2022-11-16T18:07:46.162Z,7
2022-11-16T18:36:49.205Z,10
2022-11-16T19:05:51.041Z,8
2022-11-16T19:34:52.256Z,8
2022-11-16T20:03:53.138Z,13
2022-11-16T20:32:55.253Z,10
2022-11-16T21:01:58.837Z,8
2022-11-16T21:30:57.583Z,10
2022-11-16T22:00:00.893Z,8
2022-11-16T22:29:05.019Z,7
2022-11-16T22:58:09.011Z,5
2022-11-16T23:27:15.629Z,6
2022-11-16T23:56:24.912Z,6
